sensor_id;sensor_type;location;lat;lon;timestamp;pressure;altitude;pressure_sealevel;temperature
67515;BMP280;60646;55.802;37.032;2023-04-15T00:01:24;100863.00;;;8.04
67515;BMP280;60646;55.802;37.032;2023-04-15T00:03:51;100833.16;;;7.87
67515;BMP280;60646;55.802;37.032;2023-04-15T00:06:22;100847.50;;;7.90
67515;BMP280;60646;55.802;37.032;2023-04-15T00:08:48;100874.09;;;8.02
67515;BMP280;60646;55.802;37.032;2023-04-15T00:11:15;100854.44;;;7.87
67515;BMP280;60646;55.802;37.032;2023-04-15T00:13:43;100845.75;;;7.74
67515;BMP280;60646;55.802;37.032;2023-04-15T00:16:09;100878.88;;;7.95
67515;BMP280;60646;55.802;37.032;2023-04-15T00:18:35;100865.00;;;7.78
67515;BMP280;60646;55.802;37.032;2023-04-15T00:21:02;100865.53;;;7.73
67515;BMP280;60646;55.802;37.032;2023-04-15T00:23:29;100890.19;;;7.86
67515;BMP280;60646;55.802;37.032;2023-04-15T00:25:55;100865.75;;;7.66
67515;BMP280;60646;55.802;37.032;2023-04-15T00:28:21;100889.25;;;7.80
67515;BMP280;60646;55.802;37.032;2023-04-15T00:30:47;100880.88;;;7.69
67515;BMP280;60646;55.802;37.032;2023-04-15T00:33:13;100900.41;;;7.75
67515;BMP280;60646;55.802;37.032;2023-04-15T00:35:39;100869.41;;;7.47
67515;BMP280;60646;55.802;37.032;2023-04-15T00:38:06;100879.78;;;7.54
67515;BMP280;60646;55.802;37.032;2023-04-15T00:40:34;100873.31;;;7.42
67515;BMP280;60646;55.802;37.032;2023-04-15T00:43:00;100889.19;;;7.46
67515;BMP280;60646;55.802;37.032;2023-04-15T00:45:26;100895.56;;;7.48
67515;BMP280;60646;55.802;37.032;2023-04-15T00:47:54;100919.16;;;7.59
67515;BMP280;60646;55.802;37.032;2023-04-15T00:50:21;100892.06;;;7.39
67515;BMP280;60646;55.802;37.032;2023-04-15T00:52:47;100919.69;;;7.54
67515;BMP280;60646;55.802;37.032;2023-04-15T00:55:15;100902.47;;;7.33
67515;BMP280;60646;55.802;37.032;2023-04-15T00:57:41;100896.09;;;7.31
67515;BMP280;60646;55.802;37.032;2023-04-15T01:00:07;100899.47;;;7.31
67515;BMP280;60646;55.802;37.032;2023-04-15T01:02:36;100928.75;;;7.44
67515;BMP280;60646;55.802;37.032;2023-04-15T01:05:02;100914.69;;;7.31
67515;BMP280;60646;55.802;37.032;2023-04-15T01:07:29;100895.03;;;7.15
67515;BMP280;60646;55.802;37.032;2023-04-15T01:09:55;100912.75;;;7.18
67515;BMP280;60646;55.802;37.032;2023-04-15T01:12:23;100917.97;;;7.22
67515;BMP280;60646;55.802;37.032;2023-04-15T01:14:54;100908.09;;;7.10
67515;BMP280;60646;55.802;37.032;2023-04-15T01:17:21;100918.28;;;7.11
67515;BMP280;60646;55.802;37.032;2023-04-15T01:19:46;100927.75;;;7.12
67515;BMP280;60646;55.802;37.032;2023-04-15T01:22:12;100948.38;;;7.21
67515;BMP280;60646;55.802;37.032;2023-04-15T01:24:39;100913.38;;;6.97
67515;BMP280;60646;55.802;37.032;2023-04-15T01:27:05;100947.84;;;7.13
67515;BMP280;60646;55.802;37.032;2023-04-15T01:29:32;100956.16;;;7.15
67515;BMP280;60646;55.802;37.032;2023-04-15T01:31:58;100930.47;;;6.96
67515;BMP280;60646;55.802;37.032;2023-04-15T01:34:44;100920.56;;;6.84
67515;BMP280;60646;55.802;37.032;2023-04-15T01:37:28;100954.09;;;7.07
67515;BMP280;60646;55.802;37.032;2023-04-15T01:39:54;100958.84;;;6.99
67515;BMP280;60646;55.802;37.032;2023-04-15T01:42:21;100944.03;;;6.86
67515;BMP280;60646;55.802;37.032;2023-04-15T01:44:49;100942.63;;;6.81
67515;BMP280;60646;55.802;37.032;2023-04-15T01:47:16;100967.34;;;6.94
67515;BMP280;60646;55.802;37.032;2023-04-15T01:49:43;100967.03;;;6.92
67515;BMP280;60646;55.802;37.032;2023-04-15T01:52:10;100955.63;;;6.79
67515;BMP280;60646;55.802;37.032;2023-04-15T01:54:37;100966.78;;;6.87
67515;BMP280;60646;55.802;37.032;2023-04-15T01:57:04;100947.50;;;6.70
67515;BMP280;60646;55.802;37.032;2023-04-15T01:59:31;100954.31;;;6.71
67515;BMP280;60646;55.802;37.032;2023-04-15T02:02:17;100945.47;;;6.61
67515;BMP280;60646;55.802;37.032;2023-04-15T02:04:43;100970.16;;;6.74
67515;BMP280;60646;55.802;37.032;2023-04-15T02:07:11;100961.63;;;6.67
67515;BMP280;60646;55.802;37.032;2023-04-15T02:09:37;100970.28;;;6.67
67515;BMP280;60646;55.802;37.032;2023-04-15T02:12:08;100983.03;;;6.76
67515;BMP280;60646;55.802;37.032;2023-04-15T02:14:35;100968.91;;;6.63
67515;BMP280;60646;55.802;37.032;2023-04-15T02:17:02;100988.47;;;6.69
67515;BMP280;60646;55.802;37.032;2023-04-15T02:19:33;100972.91;;;6.55
67515;BMP280;60646;55.802;37.032;2023-04-15T02:22:03;100985.38;;;6.58
67515;BMP280;60646;55.802;37.032;2023-04-15T02:24:30;101010.38;;;6.73
67515;BMP280;60646;55.802;37.032;2023-04-15T02:26:57;100989.28;;;6.53
67515;BMP280;60646;55.802;37.032;2023-04-15T02:29:24;100992.97;;;6.56
67515;BMP280;60646;55.802;37.032;2023-04-15T02:31:51;100982.22;;;6.47
67515;BMP280;60646;55.802;37.032;2023-04-15T02:34:18;100993.84;;;6.53
67515;BMP280;60646;55.802;37.032;2023-04-15T02:36:45;100977.44;;;6.42
67515;BMP280;60646;55.802;37.032;2023-04-15T02:39:15;100979.06;;;6.36
67515;BMP280;60646;55.802;37.032;2023-04-15T02:41:44;100996.66;;;6.46
67515;BMP280;60646;55.802;37.032;2023-04-15T02:44:14;100984.72;;;6.38
67515;BMP280;60646;55.802;37.032;2023-04-15T02:46:41;101014.34;;;6.52
67515;BMP280;60646;55.802;37.032;2023-04-15T02:49:08;101015.50;;;6.51
67515;BMP280;60646;55.802;37.032;2023-04-15T02:51:36;100983.56;;;6.22
67515;BMP280;60646;55.802;37.032;2023-04-15T02:54:03;101028.34;;;6.53
67515;BMP280;60646;55.802;37.032;2023-04-15T02:56:30;101005.28;;;6.34
67515;BMP280;60646;55.802;37.032;2023-04-15T02:58:57;101024.03;;;6.43
67515;BMP280;60646;55.802;37.032;2023-04-15T03:01:24;101034.16;;;6.48
67515;BMP280;60646;55.802;37.032;2023-04-15T03:03:51;101036.81;;;6.48
67515;BMP280;60646;55.802;37.032;2023-04-15T03:06:18;101044.94;;;6.57
67515;BMP280;60646;55.802;37.032;2023-04-15T03:08:45;101054.78;;;6.56
67515;BMP280;60646;55.802;37.032;2023-04-15T03:11:14;101058.53;;;6.59
67515;BMP280;60646;55.802;37.032;2023-04-15T03:13:41;101029.09;;;6.37
67515;BMP280;60646;55.802;37.032;2023-04-15T03:16:17;101042.13;;;6.48
67515;BMP280;60646;55.802;37.032;2023-04-15T03:18:44;101012.09;;;6.35
67515;BMP280;60646;55.802;37.032;2023-04-15T03:21:12;101027.00;;;6.45
67515;BMP280;60646;55.802;37.032;2023-04-15T03:23:40;101070.50;;;6.67
67515;BMP280;60646;55.802;37.032;2023-04-15T03:26:07;101062.81;;;6.69
67515;BMP280;60646;55.802;37.032;2023-04-15T03:28:34;101026.34;;;6.41
67515;BMP280;60646;55.802;37.032;2023-04-15T03:31:02;101029.34;;;6.43
67515;BMP280;60646;55.802;37.032;2023-04-15T03:33:29;101054.72;;;6.60
67515;BMP280;60646;55.802;37.032;2023-04-15T03:35:56;101076.28;;;6.78
67515;BMP280;60646;55.802;37.032;2023-04-15T03:38:41;101052.72;;;6.64
67515;BMP280;60646;55.802;37.032;2023-04-15T03:41:12;101072.38;;;6.83
67515;BMP280;60646;55.802;37.032;2023-04-15T03:43:39;101063.84;;;6.75
67515;BMP280;60646;55.802;37.032;2023-04-15T03:46:06;101032.63;;;6.63
67515;BMP280;60646;55.802;37.032;2023-04-15T03:48:33;101079.75;;;6.91
67515;BMP280;60646;55.802;37.032;2023-04-15T03:50:59;101056.19;;;6.77
67515;BMP280;60646;55.802;37.032;2023-04-15T03:53:26;101058.69;;;6.84
67515;BMP280;60646;55.802;37.032;2023-04-15T03:55:53;101012.72;;;6.55
67515;BMP280;60646;55.802;37.032;2023-04-15T03:58:20;101040.59;;;6.79
67515;BMP280;60646;55.802;37.032;2023-04-15T04:00:47;101047.97;;;6.88
67515;BMP280;60646;55.802;37.032;2023-04-15T04:03:14;101038.19;;;6.85
67515;BMP280;60646;55.802;37.032;2023-04-15T04:05:41;101065.06;;;7.03
67515;BMP280;60646;55.802;37.032;2023-04-15T04:08:09;101077.63;;;7.15
67515;BMP280;60646;55.802;37.032;2023-04-15T04:10:39;101087.00;;;7.19
67515;BMP280;60646;55.802;37.032;2023-04-15T04:13:06;101090.22;;;7.27
67515;BMP280;60646;55.802;37.032;2023-04-15T04:15:33;101061.13;;;7.07
67515;BMP280;60646;55.802;37.032;2023-04-15T04:18:00;101086.94;;;7.36
67515;BMP280;60646;55.802;37.032;2023-04-15T04:20:27;101063.47;;;7.18
67515;BMP280;60646;55.802;37.032;2023-04-15T04:22:54;101096.53;;;7.46
67515;BMP280;60646;55.802;37.032;2023-04-15T04:25:21;101070.69;;;7.34
67515;BMP280;60646;55.802;37.032;2023-04-15T04:27:48;101098.72;;;7.51
67515;BMP280;60646;55.802;37.032;2023-04-15T04:30:15;101097.00;;;7.57
67515;BMP280;60646;55.802;37.032;2023-04-15T04:32:42;101072.97;;;7.48
67515;BMP280;60646;55.802;37.032;2023-04-15T04:35:09;101081.88;;;7.54
67515;BMP280;60646;55.802;37.032;2023-04-15T04:37:37;101095.88;;;7.70
67515;BMP280;60646;55.802;37.032;2023-04-15T04:40:04;101089.69;;;7.61
67515;BMP280;60646;55.802;37.032;2023-04-15T04:42:31;101079.56;;;7.56
67515;BMP280;60646;55.802;37.032;2023-04-15T04:44:58;101082.56;;;7.58
67515;BMP280;60646;55.802;37.032;2023-04-15T04:47:25;101088.41;;;7.65
67515;BMP280;60646;55.802;37.032;2023-04-15T04:49:52;101108.09;;;7.80
67515;BMP280;60646;55.802;37.032;2023-04-15T04:52:19;101105.38;;;7.84
67515;BMP280;60646;55.802;37.032;2023-04-15T04:54:46;101094.28;;;7.73
67515;BMP280;60646;55.802;37.032;2023-04-15T04:57:13;101103.88;;;7.83
67515;BMP280;60646;55.802;37.032;2023-04-15T04:59:40;101112.81;;;7.89
67515;BMP280;60646;55.802;37.032;2023-04-15T05:02:07;101096.22;;;7.85
67515;BMP280;60646;55.802;37.032;2023-04-15T05:04:34;101099.31;;;7.84
67515;BMP280;60646;55.802;37.032;2023-04-15T05:07:02;101090.25;;;7.81
67515;BMP280;60646;55.802;37.032;2023-04-15T05:09:32;101102.84;;;7.93
67515;BMP280;60646;55.802;37.032;2023-04-15T05:12:02;101111.44;;;8.10
67515;BMP280;60646;55.802;37.032;2023-04-15T05:14:29;101105.50;;;8.06
67515;BMP280;60646;55.802;37.032;2023-04-15T05:16:57;101083.00;;;7.94
67515;BMP280;60646;55.802;37.032;2023-04-15T05:19:24;101102.41;;;8.07
67515;BMP280;60646;55.802;37.032;2023-04-15T05:21:59;101114.09;;;8.22
67515;BMP280;60646;55.802;37.032;2023-04-15T05:24:27;101110.28;;;8.23
67515;BMP280;60646;55.802;37.032;2023-04-15T05:26:54;101099.75;;;8.20
67515;BMP280;60646;55.802;37.032;2023-04-15T05:29:22;101090.59;;;8.21
67515;BMP280;60646;55.802;37.032;2023-04-15T05:31:49;101097.31;;;8.25
67515;BMP280;60646;55.802;37.032;2023-04-15T05:34:16;101083.03;;;8.19
67515;BMP280;60646;55.802;37.032;2023-04-15T05:36:43;101099.41;;;8.30
67515;BMP280;60646;55.802;37.032;2023-04-15T05:39:10;101115.69;;;8.45
67515;BMP280;60646;55.802;37.032;2023-04-15T05:41:37;101089.50;;;8.31
67515;BMP280;60646;55.802;37.032;2023-04-15T05:44:04;101125.06;;;8.50
67515;BMP280;60646;55.802;37.032;2023-04-15T05:46:31;101113.47;;;8.44
67515;BMP280;60646;55.802;37.032;2023-04-15T05:48:58;101128.13;;;8.61
67515;BMP280;60646;55.802;37.032;2023-04-15T05:51:26;101118.78;;;8.56
67515;BMP280;60646;55.802;37.032;2023-04-15T05:53:53;101083.84;;;8.42
67515;BMP280;60646;55.802;37.032;2023-04-15T05:56:23;101132.41;;;8.71
67515;BMP280;60646;55.802;37.032;2023-04-15T05:58:52;101132.91;;;8.78
67515;BMP280;60646;55.802;37.032;2023-04-15T06:01:19;101111.41;;;8.60
67515;BMP280;60646;55.802;37.032;2023-04-15T06:03:46;101118.44;;;8.67
67515;BMP280;60646;55.802;37.032;2023-04-15T06:06:14;101101.72;;;8.54
67515;BMP280;60646;55.802;37.032;2023-04-15T06:08:41;101127.72;;;8.75
67515;BMP280;60646;55.802;37.032;2023-04-15T06:11:08;101117.72;;;8.66
67515;BMP280;60646;55.802;37.032;2023-04-15T06:13:36;101114.59;;;8.68
67515;BMP280;60646;55.802;37.032;2023-04-15T06:16:03;101132.78;;;8.82
67515;BMP280;60646;55.802;37.032;2023-04-15T06:18:30;101122.38;;;8.75
67515;BMP280;60646;55.802;37.032;2023-04-15T06:20:58;101118.22;;;8.74
67515;BMP280;60646;55.802;37.032;2023-04-15T06:23:25;101124.38;;;8.83
67515;BMP280;60646;55.802;37.032;2023-04-15T06:25:52;101145.97;;;8.98
67515;BMP280;60646;55.802;37.032;2023-04-15T06:28:20;101143.59;;;9.00
67515;BMP280;60646;55.802;37.032;2023-04-15T06:30:47;101147.25;;;9.06
67515;BMP280;60646;55.802;37.032;2023-04-15T06:33:15;101123.19;;;8.97
67515;BMP280;60646;55.802;37.032;2023-04-15T06:35:42;101126.75;;;9.03
67515;BMP280;60646;55.802;37.032;2023-04-15T06:38:09;101114.53;;;8.93
67515;BMP280;60646;55.802;37.032;2023-04-15T06:40:36;101149.41;;;9.20
67515;BMP280;60646;55.802;37.032;2023-04-15T06:43:03;101136.31;;;9.13
67515;BMP280;60646;55.802;37.032;2023-04-15T06:45:37;101158.13;;;9.33
67515;BMP280;60646;55.802;37.032;2023-04-15T06:48:10;101136.84;;;9.21
67515;BMP280;60646;55.802;37.032;2023-04-15T06:50:38;101165.22;;;9.36
67515;BMP280;60646;55.802;37.032;2023-04-15T06:53:07;101165.63;;;9.48
67515;BMP280;60646;55.802;37.032;2023-04-15T06:55:34;101164.75;;;9.51
67515;BMP280;60646;55.802;37.032;2023-04-15T06:58:01;101146.75;;;9.42
67515;BMP280;60646;55.802;37.032;2023-04-15T07:00:29;101142.19;;;9.43
67515;BMP280;60646;55.802;37.032;2023-04-15T07:02:56;101139.78;;;9.44
67515;BMP280;60646;55.802;37.032;2023-04-15T07:05:48;101175.19;;;9.79
67515;BMP280;60646;55.802;37.032;2023-04-15T07:08:15;101157.63;;;9.69
67515;BMP280;60646;55.802;37.032;2023-04-15T07:11:00;101139.69;;;9.70
67515;BMP280;60646;55.802;37.032;2023-04-15T07:13:30;101176.56;;;9.93
67515;BMP280;60646;55.802;37.032;2023-04-15T07:15:57;101158.47;;;9.97
67515;BMP280;60646;55.802;37.032;2023-04-15T07:18:25;101168.16;;;10.04
67515;BMP280;60646;55.802;37.032;2023-04-15T07:20:55;101162.69;;;10.07
67515;BMP280;60646;55.802;37.032;2023-04-15T07:23:22;101138.63;;;9.98
67515;BMP280;60646;55.802;37.032;2023-04-15T07:25:49;101152.00;;;10.07
67515;BMP280;60646;55.802;37.032;2023-04-15T07:28:17;101164.22;;;10.26
67515;BMP280;60646;55.802;37.032;2023-04-15T07:30:44;101134.53;;;10.15
67515;BMP280;60646;55.802;37.032;2023-04-15T07:33:11;101159.25;;;10.37
67515;BMP280;60646;55.802;37.032;2023-04-15T07:35:39;101137.41;;;10.30
67515;BMP280;60646;55.802;37.032;2023-04-15T07:38:31;101166.09;;;10.57
67515;BMP280;60646;55.802;37.032;2023-04-15T07:40:58;101134.91;;;10.44
67515;BMP280;60646;55.802;37.032;2023-04-15T07:43:25;101149.78;;;10.54
67515;BMP280;60646;55.802;37.032;2023-04-15T07:45:52;101147.44;;;10.66
67515;BMP280;60646;55.802;37.032;2023-04-15T07:48:20;101142.78;;;10.66
67515;BMP280;60646;55.802;37.032;2023-04-15T07:50:47;101146.22;;;10.76
67515;BMP280;60646;55.802;37.032;2023-04-15T07:53:14;101133.75;;;10.73
67515;BMP280;60646;55.802;37.032;2023-04-15T07:55:41;101152.81;;;10.93
67515;BMP280;60646;55.802;37.032;2023-04-15T07:58:10;101150.38;;;10.95
67515;BMP280;60646;55.802;37.032;2023-04-15T08:00:40;101145.97;;;11.01
67515;BMP280;60646;55.802;37.032;2023-04-15T08:03:09;101167.63;;;11.12
67515;BMP280;60646;55.802;37.032;2023-04-15T08:05:36;101146.22;;;11.12
67515;BMP280;60646;55.802;37.032;2023-04-15T08:08:07;101134.06;;;11.11
67515;BMP280;60646;55.802;37.032;2023-04-15T08:10:35;101115.81;;;11.09
67515;BMP280;60646;55.802;37.032;2023-04-15T08:13:07;101130.63;;;11.20
67515;BMP280;60646;55.802;37.032;2023-04-15T08:15:34;101139.69;;;11.31
67515;BMP280;60646;55.802;37.032;2023-04-15T08:18:01;101127.94;;;11.38
67515;BMP280;60646;55.802;37.032;2023-04-15T08:20:28;101136.22;;;11.49
67515;BMP280;60646;55.802;37.032;2023-04-15T08:22:55;101143.47;;;11.66
67515;BMP280;60646;55.802;37.032;2023-04-15T08:25:22;101126.97;;;11.59
67515;BMP280;60646;55.802;37.032;2023-04-15T08:27:50;101149.34;;;11.80
67515;BMP280;60646;55.802;37.032;2023-04-15T08:30:18;101128.28;;;11.73
67515;BMP280;60646;55.802;37.032;2023-04-15T08:32:49;101147.41;;;11.89
67515;BMP280;60646;55.802;37.032;2023-04-15T08:35:17;101128.25;;;11.82
67515;BMP280;60646;55.802;37.032;2023-04-15T08:37:44;101153.19;;;11.97
67515;BMP280;60646;55.802;37.032;2023-04-15T08:40:11;101126.44;;;11.88
67515;BMP280;60646;55.802;37.032;2023-04-15T08:42:48;101139.25;;;12.07
67515;BMP280;60646;55.802;37.032;2023-04-15T08:45:18;101113.44;;;11.95
67515;BMP280;60646;55.802;37.032;2023-04-15T08:47:48;101116.25;;;12.01
67515;BMP280;60646;55.802;37.032;2023-04-15T08:50:25;101122.00;;;12.08
67515;BMP280;60646;55.802;37.032;2023-04-15T08:52:55;101122.41;;;12.16
67515;BMP280;60646;55.802;37.032;2023-04-15T08:55:29;101113.19;;;12.17
67515;BMP280;60646;55.802;37.032;2023-04-15T08:58:00;101100.97;;;12.16
67515;BMP280;60646;55.802;37.032;2023-04-15T09:00:28;101134.91;;;12.43
67515;BMP280;60646;55.802;37.032;2023-04-15T09:02:55;101120.34;;;12.35
67515;BMP280;60646;55.802;37.032;2023-04-15T09:05:22;101115.41;;;12.42
67515;BMP280;60646;55.802;37.032;2023-04-15T09:07:50;101105.44;;;12.43
67515;BMP280;60646;55.802;37.032;2023-04-15T09:10:17;101104.78;;;12.48
67515;BMP280;60646;55.802;37.032;2023-04-15T09:12:44;101119.06;;;12.54
67515;BMP280;60646;55.802;37.032;2023-04-15T09:15:11;101112.03;;;12.56
67515;BMP280;60646;55.802;37.032;2023-04-15T09:17:44;101132.41;;;12.77
67515;BMP280;60646;55.802;37.032;2023-04-15T09:20:13;101131.78;;;12.82
67515;BMP280;60646;55.802;37.032;2023-04-15T09:22:42;101097.91;;;12.70
67515;BMP280;60646;55.802;37.032;2023-04-15T09:25:34;101128.38;;;12.97
67515;BMP280;60646;55.802;37.032;2023-04-15T09:28:01;101095.97;;;12.71
67515;BMP280;60646;55.802;37.032;2023-04-15T09:30:28;101093.97;;;12.80
67515;BMP280;60646;55.802;37.032;2023-04-15T09:32:58;101103.97;;;12.95
67515;BMP280;60646;55.802;37.032;2023-04-15T09:35:28;101108.38;;;12.98
67515;BMP280;60646;55.802;37.032;2023-04-15T09:38:06;101127.28;;;13.18
67515;BMP280;60646;55.802;37.032;2023-04-15T09:40:36;101124.16;;;13.19
67515;BMP280;60646;55.802;37.032;2023-04-15T09:43:04;101114.13;;;13.20
67515;BMP280;60646;55.802;37.032;2023-04-15T09:45:32;101117.91;;;13.28
67515;BMP280;60646;55.802;37.032;2023-04-15T09:48:20;101091.75;;;13.23
67515;BMP280;60646;55.802;37.032;2023-04-15T09:50:52;101118.09;;;13.39
67515;BMP280;60646;55.802;37.032;2023-04-15T09:53:21;101096.72;;;13.30
67515;BMP280;60646;55.802;37.032;2023-04-15T09:55:56;101088.00;;;13.35
67515;BMP280;60646;55.802;37.032;2023-04-15T09:58:26;101111.50;;;13.55
67515;BMP280;60646;55.802;37.032;2023-04-15T10:01:19;101122.59;;;13.62
67515;BMP280;60646;55.802;37.032;2023-04-15T10:03:46;101113.25;;;13.58
67515;BMP280;60646;55.802;37.032;2023-04-15T10:06:13;101084.13;;;13.50
67515;BMP280;60646;55.802;37.032;2023-04-15T10:08:40;101098.66;;;13.59
67515;BMP280;60646;55.802;37.032;2023-04-15T10:11:08;101084.66;;;13.55
67515;BMP280;60646;55.802;37.032;2023-04-15T10:13:36;101114.59;;;13.82
67515;BMP280;60646;55.802;37.032;2023-04-15T10:16:10;101113.00;;;13.90
67515;BMP280;60646;55.802;37.032;2023-04-15T10:18:56;101122.69;;;14.02
67515;BMP280;60646;55.802;37.032;2023-04-15T10:21:27;101097.13;;;13.92
67515;BMP280;60646;55.802;37.032;2023-04-15T10:23:54;101110.78;;;14.09
67515;BMP280;60646;55.802;37.032;2023-04-15T10:26:22;101112.59;;;14.18
67515;BMP280;60646;55.802;37.032;2023-04-15T10:28:53;101113.13;;;14.22
67515;BMP280;60646;55.802;37.032;2023-04-15T10:31:29;101122.00;;;14.28
67515;BMP280;60646;55.802;37.032;2023-04-15T10:33:58;101090.03;;;14.09
67515;BMP280;60646;55.802;37.032;2023-04-15T10:36:29;101121.38;;;14.33
67515;BMP280;60646;55.802;37.032;2023-04-15T10:38:56;101094.59;;;14.24
67515;BMP280;60646;55.802;37.032;2023-04-15T10:41:27;101093.66;;;14.27
67515;BMP280;60646;55.802;37.032;2023-04-15T10:44:03;101107.47;;;14.40
67515;BMP280;60646;55.802;37.032;2023-04-15T10:46:36;101119.06;;;14.51
67515;BMP280;60646;55.802;37.032;2023-04-15T10:51:58;101096.13;;;14.50
67515;BMP280;60646;55.802;37.032;2023-04-15T10:57:39;101116.09;;;14.69
67515;BMP280;60646;55.802;37.032;2023-04-15T11:00:11;101112.69;;;14.69
67515;BMP280;60646;55.802;37.032;2023-04-15T11:02:58;101096.00;;;14.65
67515;BMP280;60646;55.802;37.032;2023-04-15T11:05:52;101098.13;;;14.81
67515;BMP280;60646;55.802;37.032;2023-04-15T11:08:52;101113.09;;;14.88
67515;BMP280;60646;55.802;37.032;2023-04-15T11:11:19;101093.72;;;14.78
67515;BMP280;60646;55.802;37.032;2023-04-15T11:13:50;101103.56;;;14.87
67515;BMP280;60646;55.802;37.032;2023-04-15T11:16:19;101105.25;;;14.84
67515;BMP280;60646;55.802;37.032;2023-04-15T11:18:56;101077.56;;;14.78
67515;BMP280;60646;55.802;37.032;2023-04-15T11:21:25;101084.91;;;14.83
67515;BMP280;60646;55.802;37.032;2023-04-15T11:23:54;101110.00;;;14.95
67515;BMP280;60646;55.802;37.032;2023-04-15T11:26:40;101105.88;;;14.99
67515;BMP280;60646;55.802;37.032;2023-04-15T11:29:07;101093.38;;;14.96
67515;BMP280;60646;55.802;37.032;2023-04-15T11:31:37;101081.53;;;14.88
67515;BMP280;60646;55.802;37.032;2023-04-15T11:34:04;101094.63;;;15.01
67515;BMP280;60646;55.802;37.032;2023-04-15T11:36:31;101097.56;;;15.03
67515;BMP280;60646;55.802;37.032;2023-04-15T11:38:59;101098.28;;;15.03
67515;BMP280;60646;55.802;37.032;2023-04-15T11:41:26;101085.53;;;14.98
67515;BMP280;60646;55.802;37.032;2023-04-15T11:43:53;101080.16;;;14.98
67515;BMP280;60646;55.802;37.032;2023-04-15T11:46:20;101083.19;;;15.11
67515;BMP280;60646;55.802;37.032;2023-04-15T11:49:07;101077.41;;;15.18
67515;BMP280;60646;55.802;37.032;2023-04-15T11:51:34;101070.44;;;15.06
67515;BMP280;60646;55.802;37.032;2023-04-15T11:54:25;101068.03;;;15.08
67515;BMP280;60646;55.802;37.032;2023-04-15T11:56:51;101086.94;;;15.19
67515;BMP280;60646;55.802;37.032;2023-04-15T11:59:19;101062.41;;;15.12
67515;BMP280;60646;55.802;37.032;2023-04-15T12:01:45;101071.53;;;15.25
67515;BMP280;60646;55.802;37.032;2023-04-15T12:04:16;101058.28;;;15.16
67515;BMP280;60646;55.802;37.032;2023-04-15T12:06:45;101058.78;;;15.20
67515;BMP280;60646;55.802;37.032;2023-04-15T12:09:12;101054.13;;;15.21
67515;BMP280;60646;55.802;37.032;2023-04-15T12:17:11;101059.31;;;15.24
67515;BMP280;60646;55.802;37.032;2023-04-15T12:19:39;101057.84;;;15.23
67515;BMP280;60646;55.802;37.032;2023-04-15T12:22:11;101056.88;;;15.26
67515;BMP280;60646;55.802;37.032;2023-04-15T12:24:38;101067.19;;;15.33
67515;BMP280;60646;55.802;37.032;2023-04-15T12:27:24;101062.09;;;15.35
67515;BMP280;60646;55.802;37.032;2023-04-15T12:30:03;101053.72;;;15.28
67515;BMP280;60646;55.802;37.032;2023-04-15T12:32:34;101037.75;;;15.24
67515;BMP280;60646;55.802;37.032;2023-04-15T12:35:00;101052.97;;;15.27
67515;BMP280;60646;55.802;37.032;2023-04-15T12:37:45;101073.84;;;15.43
67515;BMP280;60646;55.802;37.032;2023-04-15T12:40:49;101057.34;;;15.25
67515;BMP280;60646;55.802;37.032;2023-04-15T12:43:16;101055.41;;;15.31
67515;BMP280;60646;55.802;37.032;2023-04-15T12:45:42;101058.84;;;15.31
67515;BMP280;60646;55.802;37.032;2023-04-15T12:48:10;101069.69;;;15.42
67515;BMP280;60646;55.802;37.032;2023-04-15T12:50:38;101058.41;;;15.38
67515;BMP280;60646;55.802;37.032;2023-04-15T12:53:03;101058.41;;;15.38
67515;BMP280;60646;55.802;37.032;2023-04-15T12:55:29;101057.91;;;15.34
67515;BMP280;60646;55.802;37.032;2023-04-15T12:57:56;101056.69;;;15.35
67515;BMP280;60646;55.802;37.032;2023-04-15T13:00:22;101046.63;;;15.30
67515;BMP280;60646;55.802;37.032;2023-04-15T13:02:48;101045.59;;;15.22
67515;BMP280;60646;55.802;37.032;2023-04-15T13:05:14;101052.50;;;15.34
67515;BMP280;60646;55.802;37.032;2023-04-15T13:07:41;101043.44;;;15.32
67515;BMP280;60646;55.802;37.032;2023-04-15T13:10:07;101048.84;;;15.37
67515;BMP280;60646;55.802;37.032;2023-04-15T13:12:54;101063.41;;;15.57
67515;BMP280;60646;55.802;37.032;2023-04-15T13:15:21;101063.13;;;15.49
67515;BMP280;60646;55.802;37.032;2023-04-15T13:17:48;101060.88;;;15.48
67515;BMP280;60646;55.802;37.032;2023-04-15T13:20:14;101063.91;;;15.61
67515;BMP280;60646;55.802;37.032;2023-04-15T13:22:58;101043.28;;;15.47
67515;BMP280;60646;55.802;37.032;2023-04-15T13:25:42;101047.22;;;15.51
67515;BMP280;60646;55.802;37.032;2023-04-15T13:28:11;101060.00;;;15.62
67515;BMP280;60646;55.802;37.032;2023-04-15T13:30:38;101042.31;;;15.50
67515;BMP280;60646;55.802;37.032;2023-04-15T13:33:04;101051.44;;;15.58
67515;BMP280;60646;55.802;37.032;2023-04-15T13:35:34;101074.00;;;15.71
67515;BMP280;60646;55.802;37.032;2023-04-15T13:38:00;101073.53;;;15.73
67515;BMP280;60646;55.802;37.032;2023-04-15T13:40:26;101036.47;;;15.57
67515;BMP280;60646;55.802;37.032;2023-04-15T13:43:17;101066.97;;;15.85
67515;BMP280;60646;55.802;37.032;2023-04-15T13:45:43;101064.25;;;15.79
67515;BMP280;60646;55.802;37.032;2023-04-15T13:48:11;101064.25;;;15.79
67515;BMP280;60646;55.802;37.032;2023-04-15T13:50:37;101059.84;;;15.82
67515;BMP280;60646;55.802;37.032;2023-04-15T13:55:47;101058.13;;;15.79
67515;BMP280;60646;55.802;37.032;2023-04-15T13:58:12;101050.75;;;15.74
67515;BMP280;60646;55.802;37.032;2023-04-15T14:00:38;101039.44;;;15.70
67515;BMP280;60646;55.802;37.032;2023-04-15T14:03:05;101051.00;;;15.76
67515;BMP280;60646;55.802;37.032;2023-04-15T14:05:31;101050.75;;;15.74
67515;BMP280;60646;55.802;37.032;2023-04-15T14:07:58;101043.13;;;15.67
67515;BMP280;60646;55.802;37.032;2023-04-15T14:10:24;101029.38;;;15.59
67515;BMP280;60646;55.802;37.032;2023-04-15T14:15:34;101034.03;;;15.59
67515;BMP280;60646;55.802;37.032;2023-04-15T14:18:01;101048.25;;;15.65
67515;BMP280;60646;55.802;37.032;2023-04-15T14:20:27;101009.69;;;15.42